Time;durP1;ratioP1;P1;durP2;ratioP2;P2;SDS_P1;SDS_P2;PMS_P1;PMS_P2;Temp;Humidity;BMP_temperature;BMP_pressure;BME280_temperature;BME280_humidity;BME280_pressure;Samples;Min_cycle;Max_cycle;Signal;HPM_P1;HPM_P2
2021/06/28 00:00:11;;;;;;;24.47;18.73;;;17.50;99.90;;;;;;5015554;28;20210;-63
2021/06/28 00:02:37;;;;;;;23.90;18.27;;;17.50;99.90;;;;;;5015771;28;20219;-62
2021/06/28 00:05:05;;;;;;;28.63;20.03;;;17.50;99.90;;;;;;5015546;28;20227;-62
2021/06/28 00:07:33;;;;;;;26.47;19.97;;;17.40;99.90;;;;;;5015521;28;20290;-62
2021/06/28 00:10:00;;;;;;;25.53;20.20;;;17.40;99.90;;;;;;5015488;28;20671;-62
2021/06/28 00:12:26;;;;;;;26.67;19.43;;;17.50;99.90;;;;;;5015434;28;20637;-63
2021/06/28 00:14:53;;;;;;;27.90;20.27;;;17.50;99.90;;;;;;5015161;28;20650;-63
2021/06/28 00:17:20;;;;;;;29.80;20.63;;;17.50;99.90;;;;;;5015514;28;20207;-63
2021/06/28 00:19:46;;;;;;;27.97;19.80;;;17.40;99.90;;;;;;5015230;28;20234;-63
2021/06/28 00:22:14;;;;;;;29.53;20.40;;;17.50;99.90;;;;;;5015444;28;20213;-63
2021/06/28 00:24:42;;;;;;;30.63;20.67;;;17.40;99.90;;;;;;5015129;28;20207;-63
2021/06/28 00:27:09;;;;;;;31.13;21.00;;;17.40;99.90;;;;;;5015271;28;20203;-63
2021/06/28 00:29:36;;;;;;;24.93;19.40;;;17.40;99.90;;;;;;5015111;28;20206;-63
2021/06/28 00:32:03;;;;;;;26.93;19.40;;;17.40;99.90;;;;;;5015053;28;20683;-63
2021/06/28 00:34:30;;;;;;;29.67;21.80;;;17.40;99.90;;;;;;5014916;28;20207;-63
2021/06/28 00:36:57;;;;;;;27.63;21.17;;;17.30;99.90;;;;;;5015115;28;20297;-63
2021/06/28 00:39:24;;;;;;;30.73;21.90;;;17.30;99.90;;;;;;5014745;28;20710;-62
2021/06/28 00:41:52;;;;;;;31.70;23.47;;;17.30;99.90;;;;;;5014882;28;20207;-63
2021/06/28 00:44:19;;;;;;;39.77;24.57;;;17.30;99.90;;;;;;5014961;28;20203;-62
2021/06/28 00:46:45;;;;;;;31.87;22.90;;;17.20;99.90;;;;;;5014941;28;20285;-62
2021/06/28 00:49:12;;;;;;;37.80;24.10;;;17.20;99.90;;;;;;5014805;28;20203;-62
2021/06/28 00:51:38;;;;;;;45.27;25.10;;;17.20;99.90;;;;;;5013958;28;20627;-63
2021/06/28 00:54:05;;;;;;;43.83;26.33;;;17.10;99.90;;;;;;5014402;28;20667;-63
2021/06/28 00:56:32;;;;;;;40.23;25.40;;;17.10;99.90;;;;;;5014446;28;20707;-63
2021/06/28 00:59:02;;;;;;;41.13;25.67;;;17.00;99.90;;;;;;5014684;28;20227;-62
2021/06/28 01:01:29;;;;;;;39.93;25.47;;;17.00;99.90;;;;;;5014703;28;20233;-62
2021/06/28 01:03:55;;;;;;;35.00;24.17;;;17.10;99.90;;;;;;5014460;28;20210;-63
2021/06/28 01:06:22;;;;;;;34.83;23.47;;;17.10;99.90;;;;;;5014285;28;20281;-63
2021/06/28 01:08:49;;;;;;;33.57;23.43;;;17.10;99.90;;;;;;5014383;28;20246;-63
2021/06/28 01:11:15;;;;;;;37.33;23.20;;;17.10;99.90;;;;;;5014179;28;20215;-62
2021/06/28 01:13:42;;;;;;;37.83;23.07;;;17.10;99.90;;;;;;5014342;28;20203;-63
2021/06/28 01:16:11;;;;;;;33.17;24.00;;;17.10;99.90;;;;;;5014259;28;20223;-63
2021/06/28 01:18:38;;;;;;;32.67;23.90;;;17.10;99.90;;;;;;5014209;28;20234;-62
2021/06/28 01:21:07;;;;;;;33.23;22.70;;;17.10;99.90;;;;;;5014125;28;20210;-63
2021/06/28 01:23:35;;;;;;;31.47;21.97;;;17.10;99.90;;;;;;5013856;28;20210;-62
2021/06/28 01:26:05;;;;;;;29.40;21.37;;;17.10;99.90;;;;;;5014187;28;20226;-62
2021/06/28 01:28:31;;;;;;;27.97;21.20;;;17.10;99.90;;;;;;5014203;28;20207;-62
2021/06/28 01:30:59;;;;;;;39.20;23.13;;;17.10;99.90;;;;;;5013841;28;20673;-62
2021/06/28 01:33:26;;;;;;;41.73;25.77;;;17.00;99.90;;;;;;5013801;28;20230;-62
2021/06/28 01:35:53;;;;;;;39.73;25.07;;;16.90;99.90;;;;;;5013810;28;20281;-62
2021/06/28 01:38:19;;;;;;;34.27;22.30;;;16.90;99.90;;;;;;5013848;28;20226;-62
2021/06/28 01:40:48;;;;;;;33.63;21.20;;;16.90;99.90;;;;;;5013935;28;20269;-62
2021/06/28 01:43:14;;;;;;;27.77;20.73;;;16.90;99.90;;;;;;5013821;28;20211;-62
2021/06/28 01:45:41;;;;;;;46.13;23.63;;;16.90;99.90;;;;;;5013638;28;20231;-63
2021/06/28 01:48:09;;;;;;;48.77;26.37;;;16.90;99.90;;;;;;5013525;28;20206;-62
2021/06/28 01:50:37;;;;;;;47.87;26.90;;;16.80;99.90;;;;;;5013460;28;20258;-62
2021/06/28 01:53:05;;;;;;;51.93;26.23;;;16.80;99.90;;;;;;5013594;28;20215;-62
2021/06/28 01:55:33;;;;;;;46.23;25.80;;;16.80;99.90;;;;;;5013454;28;20231;-62
2021/06/28 01:58:03;;;;;;;40.13;24.33;;;16.80;99.90;;;;;;5013376;28;20210;-63
2021/06/28 02:00:32;;;;;;;44.27;24.30;;;16.80;99.90;;;;;;5013720;28;20233;-63
2021/06/28 02:03:00;;;;;;;36.80;23.87;;;16.80;99.90;;;;;;5013145;28;20644;-62
2021/06/28 02:05:29;;;;;;;42.93;23.97;;;16.80;99.90;;;;;;5012943;28;20238;-63
2021/06/28 02:07:56;;;;;;;40.50;25.53;;;16.80;99.90;;;;;;5013529;28;20279;-62
2021/06/28 02:10:22;;;;;;;38.97;23.70;;;16.70;99.90;;;;;;5013324;28;20207;-62
2021/06/28 02:12:49;;;;;;;37.90;23.60;;;16.70;99.90;;;;;;5013138;28;20257;-63
2021/06/28 02:15:22;;;;;;;50.77;25.30;;;16.70;99.90;;;;;;5013100;28;20238;-62
2021/06/28 02:17:49;;;;;;;37.97;23.50;;;16.70;99.90;;;;;;5013003;28;20611;-62
2021/06/28 02:20:17;;;;;;;45.37;25.63;;;16.70;99.90;;;;;;5013131;28;20231;-62
2021/06/28 02:22:44;;;;;;;42.93;25.67;;;16.70;99.90;;;;;;5013269;28;20206;-62
2021/06/28 02:25:12;;;;;;;47.33;24.93;;;16.70;99.90;;;;;;5012480;28;20695;-63
2021/06/28 02:27:43;;;;;;;46.53;26.50;;;16.60;99.90;;;;;;5013096;28;20211;-62
2021/06/28 02:30:13;;;;;;;45.37;26.97;;;16.60;99.90;;;;;;5011955;28;20257;-62
2021/06/28 02:32:42;;;;;;;44.07;27.17;;;16.60;99.90;;;;;;5013097;28;20257;-62
2021/06/28 02:35:11;;;;;;;42.73;26.43;;;16.60;99.90;;;;;;5012419;28;20231;-62
2021/06/28 02:37:39;;;;;;;46.80;26.47;;;16.60;99.90;;;;;;5012854;28;20623;-62
2021/06/28 02:40:08;;;;;;;48.73;27.37;;;16.60;99.90;;;;;;5012513;28;20281;-62
2021/06/28 02:42:35;;;;;;;47.47;27.00;;;16.60;99.90;;;;;;5012579;28;20733;-62
2021/06/28 02:45:01;;;;;;;47.53;25.17;;;16.60;99.90;;;;;;5012552;28;20242;-62
2021/06/28 02:47:28;;;;;;;37.50;23.50;;;16.60;99.90;;;;;;5012570;28;20280;-62
2021/06/28 02:49:56;;;;;;;37.90;23.13;;;16.70;99.90;;;;;;5012550;28;20200;-62
2021/06/28 02:52:23;;;;;;;40.20;22.40;;;16.70;99.90;;;;;;5012494;28;20210;-63
2021/06/28 02:54:49;;;;;;;36.00;22.67;;;16.70;99.90;;;;;;5012285;28;20223;-62
2021/06/28 02:57:16;;;;;;;37.53;23.03;;;16.70;99.90;;;;;;5012196;28;20668;-62
2021/06/28 02:59:43;;;;;;;35.40;22.30;;;16.70;99.90;;;;;;5012514;28;20278;-62
2021/06/28 03:02:09;;;;;;;40.50;23.53;;;16.70;99.90;;;;;;5012723;28;20246;-62
2021/06/28 03:04:36;;;;;;;41.23;23.87;;;16.70;99.90;;;;;;5012044;28;20622;-62
2021/06/28 03:07:04;;;;;;;40.03;25.00;;;16.60;99.90;;;;;;5012177;28;20206;-62
2021/06/28 03:09:31;;;;;;;47.97;25.40;;;16.60;99.90;;;;;;5012217;28;20206;-62
2021/06/28 03:11:57;;;;;;;37.00;23.47;;;16.60;99.90;;;;;;5012167;28;20222;-62
2021/06/28 03:14:24;;;;;;;32.97;22.47;;;16.60;99.90;;;;;;5011835;28;20210;-62
2021/06/28 03:16:50;;;;;;;33.37;20.87;;;16.60;99.90;;;;;;5012288;28;20582;-63
2021/06/28 03:19:17;;;;;;;35.20;20.73;;;16.60;99.90;;;;;;5011892;28;20226;-62
2021/06/28 03:21:44;;;;;;;33.73;20.73;;;16.60;99.90;;;;;;5012225;28;20211;-62
2021/06/28 03:24:12;;;;;;;36.77;23.13;;;16.60;99.90;;;;;;5012071;28;20257;-62
2021/06/28 03:26:38;;;;;;;41.67;24.10;;;16.50;99.90;;;;;;5011899;28;20277;-62
2021/06/28 03:29:05;;;;;;;36.43;23.77;;;16.50;99.90;;;;;;5011401;28;20253;-62
2021/06/28 03:31:32;;;;;;;33.47;21.63;;;16.50;99.90;;;;;;5012223;28;20745;-62
2021/06/28 03:34:00;;;;;;;29.83;21.63;;;16.50;99.90;;;;;;5012147;28;20671;-63
2021/06/28 03:36:27;;;;;;;31.37;22.70;;;16.50;99.90;;;;;;5012364;28;20300;-62
2021/06/28 03:38:53;;;;;;;32.83;21.60;;;16.50;99.90;;;;;;5011841;28;20222;-62
2021/06/28 03:41:22;;;;;;;28.00;20.17;;;16.50;99.90;;;;;;5013247;28;20651;-62
2021/06/28 03:43:49;;;;;;;26.37;19.57;;;16.50;99.90;;;;;;5014972;28;20206;-63
2021/06/28 03:46:15;;;;;;;25.67;18.97;;;16.50;99.90;;;;;;5013489;28;20228;-63
2021/06/28 03:48:42;;;;;;;27.73;20.67;;;16.50;99.90;;;;;;5011930;28;20629;-63
2021/06/28 03:51:09;;;;;;;30.97;21.47;;;16.50;99.90;;;;;;5011872;28;20606;-63
2021/06/28 03:53:35;;;;;;;34.70;21.67;;;16.60;99.90;;;;;;5011559;28;20265;-63
2021/06/28 03:56:07;;;;;;;29.53;19.90;;;16.60;99.90;;;;;;5011686;28;20646;-63
2021/06/28 03:58:36;;;;;;;32.97;22.43;;;16.60;99.90;;;;;;5012161;28;20210;-62
2021/06/28 04:01:03;;;;;;;36.20;24.20;;;16.60;99.90;;;;;;5009639;28;20211;-63
2021/06/28 04:03:32;;;;;;;34.13;23.50;;;16.60;99.90;;;;;;5011523;28;20207;-62
2021/06/28 04:06:01;;;;;;;39.23;25.63;;;16.60;99.90;;;;;;5011443;28;20227;-63
2021/06/28 04:08:28;;;;;;;38.43;25.07;;;16.70;99.90;;;;;;5011878;28;20620;-62
2021/06/28 04:10:55;;;;;;;38.90;24.37;;;16.70;99.90;;;;;;5011698;28;20277;-63
2021/06/28 04:13:22;;;;;;;35.13;23.80;;;16.80;99.90;;;;;;5011700;28;20370;-63
2021/06/28 04:15:50;;;;;;;32.57;22.90;;;16.80;99.90;;;;;;5010991;28;20285;-62
2021/06/28 04:18:16;;;;;;;26.97;22.13;;;16.90;99.90;;;;;;5011574;28;20586;-63
2021/06/28 04:20:43;;;;;;;34.63;22.60;;;16.90;99.90;;;;;;5010764;28;20223;-63
2021/06/28 04:23:10;;;;;;;27.23;20.60;;;17.00;99.90;;;;;;5011724;28;20207;-63
2021/06/28 04:25:37;;;;;;;32.10;21.00;;;17.00;99.90;;;;;;5012129;28;20766;-63
2021/06/28 04:28:04;;;;;;;26.10;21.80;;;17.00;99.90;;;;;;5014914;28;20679;-62
2021/06/28 04:30:31;;;;;;;26.03;20.97;;;17.10;99.90;;;;;;5010657;28;20759;-63
2021/06/28 04:32:59;;;;;;;28.80;21.10;;;17.10;99.90;;;;;;5014851;28;20206;-63
2021/06/28 04:35:27;;;;;;;29.13;21.30;;;17.10;99.90;;;;;;5014965;28;20684;-63
2021/06/28 04:37:55;;;;;;;29.33;20.10;;;17.20;99.90;;;;;;5015077;28;20203;-63
2021/06/28 04:40:25;;;;;;;30.47;21.93;;;17.20;99.90;;;;;;5014870;28;20281;-63
2021/06/28 04:42:52;;;;;;;26.87;20.83;;;17.30;99.90;;;;;;5014840;28;20663;-62
2021/06/28 04:45:20;;;;;;;25.97;20.63;;;17.40;99.90;;;;;;5014549;28;20242;-67
2021/06/28 04:47:47;;;;;;;23.23;19.73;;;17.50;99.90;;;;;;5014626;28;20671;-67
2021/06/28 04:50:17;;;;;;;25.03;18.43;;;17.50;99.90;;;;;;5014861;28;20203;-67
2021/06/28 04:52:44;;;;;;;22.10;18.77;;;17.60;99.90;;;;;;5014828;28;20206;-67
2021/06/28 04:55:13;;;;;;;21.33;18.70;;;17.80;99.90;;;;;;5014343;28;20234;-67
2021/06/28 04:57:40;;;;;;;20.17;16.93;;;17.90;99.90;;;;;;5014593;28;20211;-67
2021/06/28 05:00:09;;;;;;;18.90;16.50;;;18.00;99.90;;;;;;5014326;28;20723;-67
2021/06/28 05:02:36;;;;;;;19.87;17.00;;;18.10;99.90;;;;;;5014612;28;20214;-67
2021/06/28 05:05:03;;;;;;;19.00;16.50;;;18.20;99.90;;;;;;5014121;28;20298;-67
2021/06/28 05:07:32;;;;;;;22.47;16.93;;;18.30;99.90;;;;;;5014259;28;20291;-67
2021/06/28 05:09:58;;;;;;;21.40;15.90;;;18.50;99.90;;;;;;5014218;28;20207;-67
2021/06/28 05:12:25;;;;;;;20.70;15.50;;;18.40;95.80;;;;;;5014374;28;20206;-67
2021/06/28 05:14:52;;;;;;;17.33;15.43;;;18.50;1.00;;;;;;5013380;28;20285;-67
2021/06/28 05:17:18;;;;;;;19.63;13.70;;;18.60;99.90;;;;;;5014060;28;20298;-67
2021/06/28 05:19:45;;;;;;;17.77;14.67;;;18.70;24.00;;;;;;5011565;28;20234;-66
2021/06/28 05:22:12;;;;;;;17.03;13.93;;;18.70;1.00;;;;;;5015112;28;20211;-66
2021/06/28 05:24:41;;;;;;;15.23;13.70;;;18.90;1.00;;;;;;5010225;28;20301;-66
2021/06/28 05:27:09;;;;;;;15.93;13.93;;;18.90;99.90;;;;;;5010384;28;20736;-65
2021/06/28 05:29:35;;;;;;;15.00;13.27;;;18.90;1.00;;;;;;5010312;28;20210;-66
2021/06/28 05:32:02;;;;;;;14.67;12.57;;;19.00;99.90;;;;;;5010532;28;20207;-66
2021/06/28 05:34:29;;;;;;;14.93;12.43;;;19.10;99.90;;;;;;5010246;28;20253;-66
2021/06/28 05:36:55;;;;;;;18.87;15.23;;;19.10;99.90;;;;;;5011457;28;20211;-66
2021/06/28 05:39:22;;;;;;;18.40;15.53;;;19.20;99.90;;;;;;5013353;28;20262;-66
2021/06/28 05:41:50;;;;;;;18.93;16.07;;;19.20;80.60;;;;;;5013113;28;20860;-66
2021/06/28 05:44:20;;;;;;;19.07;15.77;;;19.00;99.90;;;;;;5013317;28;20297;-66
2021/06/28 05:46:47;;;;;;;19.13;15.47;;;19.00;47.40;;;;;;5013706;28;20223;-68
2021/06/28 05:49:17;;;;;;;17.30;15.40;;;19.00;99.90;;;;;;5013402;28;20675;-71
2021/06/28 05:51:44;;;;;;;18.27;14.73;;;19.10;99.90;;;;;;5013084;28;20210;-71
2021/06/28 05:54:10;;;;;;;17.93;15.27;;;19.10;1.00;;;;;;5012996;28;20265;-69
2021/06/28 05:56:37;;;;;;;17.33;15.53;;;19.00;1.00;;;;;;5013217;28;20642;-69
2021/06/28 05:59:21;;;;;;;20.00;15.70;;;19.00;1.00;;;;;;5013172;28;20273;-73
2021/06/28 06:01:48;;;;;;;17.67;15.53;;;19.10;1.00;;;;;;5013268;28;20206;-70
2021/06/28 06:04:14;;;;;;;18.63;14.80;;;19.20;1.00;;;;;;5012902;28;20254;-69
2021/06/28 06:06:44;;;;;;;18.27;14.83;;;19.20;99.90;;;;;;5013299;28;20227;-69
2021/06/28 06:09:11;;;;;;;18.73;14.07;;;19.30;61.60;;;;;;5013119;28;20222;-68
2021/06/28 06:11:38;;;;;;;20.60;14.60;;;19.40;99.90;;;;;;5013032;28;20203;-68
2021/06/28 06:14:05;;;;;;;17.00;14.17;;;19.60;99.90;;;;;;5013179;28;20215;-67
2021/06/28 06:16:33;;;;;;;19.23;15.63;;;19.70;99.90;;;;;;5012822;28;20239;-68
2021/06/28 06:19:00;;;;;;;18.00;15.20;;;19.90;99.90;;;;;;5012670;28;20218;-66
2021/06/28 06:21:26;;;;;;;17.87;14.23;;;20.00;1.00;;;;;;5012347;28;20227;-67
2021/06/28 06:23:53;;;;;;;17.27;14.27;;;20.00;1.00;;;;;;5012584;28;20289;-67
2021/06/28 06:26:20;;;;;;;17.60;14.47;;;20.10;99.90;;;;;;5012908;28;20234;-68
2021/06/28 06:28:47;;;;;;;20.43;13.43;;;20.10;1.00;;;;;;5012932;28;20272;-66
2021/06/28 06:31:14;;;;;;;17.63;13.33;;;20.10;1.00;;;;;;5012403;28;20203;-66
2021/06/28 06:33:42;;;;;;;17.13;14.30;;;20.20;1.00;;;;;;5012567;28;20258;-66
2021/06/28 06:36:09;;;;;;;17.43;14.03;;;20.30;99.90;;;;;;5012164;28;20226;-66
2021/06/28 06:38:36;;;;;;;16.37;14.03;;;20.40;99.90;;;;;;5012821;28;20219;-67
2021/06/28 06:41:02;;;;;;;17.27;14.10;;;20.60;1.00;;;;;;5012537;28;20230;-66
2021/06/28 06:43:29;;;;;;;13.87;12.47;;;20.70;99.90;;;;;;5012176;28;20242;-68
2021/06/28 06:45:56;;;;;;;13.83;12.40;;;20.80;1.00;;;;;;5012165;28;20227;-67
2021/06/28 06:48:23;;;;;;;13.97;11.97;;;20.90;99.90;;;;;;5011426;28;20202;-67
2021/06/28 06:50:51;;;;;;;16.40;12.20;;;21.00;45.70;;;;;;5011668;28;20241;-68
2021/06/28 06:53:18;;;;;;;13.80;12.17;;;21.00;1.00;;;;;;5012208;28;20342;-67
2021/06/28 06:55:45;;;;;;;14.13;12.53;;;21.10;64.30;;;;;;5011940;28;20719;-68
2021/06/28 06:58:12;;;;;;;14.43;12.30;;;21.30;17.20;;;;;;5012611;28;20211;-69
2021/06/28 07:00:40;;;;;;;14.50;13.00;;;21.40;1.00;;;;;;5011696;28;20231;-67
2021/06/28 07:03:07;;;;;;;14.50;11.53;;;21.50;1.00;;;;;;5011822;28;20253;-67
2021/06/28 07:05:35;;;;;;;13.63;11.77;;;21.60;1.00;;;;;;5011811;28;20285;-67
2021/06/28 07:08:03;;;;;;;15.87;11.73;;;21.70;99.90;;;;;;5012054;28;20637;-67
2021/06/28 07:10:31;;;;;;;13.47;10.27;;;21.80;99.90;;;;;;5011773;28;20290;-67
2021/06/28 07:12:57;;;;;;;13.63;10.57;;;21.90;1.00;;;;;;5011722;28;20667;-67
2021/06/28 07:15:24;;;;;;;12.50;10.10;;;22.10;1.00;;;;;;5011730;28;20273;-67
2021/06/28 07:17:51;;;;;;;13.03;11.17;;;22.20;99.90;;;;;;5011514;28;20675;-69
2021/06/28 07:20:21;;;;;;;14.03;11.40;;;22.20;1.00;;;;;;5012370;28;20227;-70
2021/06/28 07:22:48;;;;;;;12.33;11.07;;;22.20;99.90;;;;;;5012988;28;20213;-71
2021/06/28 07:25:18;;;;;;;12.83;11.53;;;22.20;99.90;;;;;;5011629;28;20870;-72
2021/06/28 07:30:57;;;;;;;17.10;11.93;;;22.30;1.00;;;;;;4991227;28;20210;-69
2021/06/28 07:33:23;;;;;;;12.60;11.37;;;22.40;99.90;;;;;;5012006;28;20290;-69
2021/06/28 07:35:58;;;;;;;16.20;11.00;;;22.50;1.00;;;;;;5015478;28;20233;-70
2021/06/28 07:38:26;;;;;;;13.10;11.70;;;22.60;78.90;;;;;;5016434;28;20233;-69
2021/06/28 07:40:54;;;;;;;17.07;11.70;;;22.80;99.90;;;;;;5012236;28;20235;-67
2021/06/28 07:43:20;;;;;;;15.10;10.50;;;22.90;1.00;;;;;;5012884;28;20318;-67
2021/06/28 07:45:48;;;;;;;11.57;10.37;;;23.00;1.00;;;;;;5016189;28;20633;-68
2021/06/28 07:48:15;;;;;;;14.63;10.13;;;23.20;1.00;;;;;;5020609;28;20207;-68
2021/06/28 07:50:42;;;;;;;17.47;11.30;;;23.40;99.90;;;;;;5014318;28;20218;-68
2021/06/28 07:53:09;;;;;;;14.83;11.17;;;23.50;99.90;;;;;;5010707;28;20225;-68
2021/06/28 07:55:35;;;;;;;10.97;9.87;;;23.50;99.90;;;;;;5010838;28;20289;-67
2021/06/28 07:58:04;;;;;;;11.30;10.20;;;23.60;99.90;;;;;;5011547;28;20215;-68
2021/06/28 08:00:31;;;;;;;10.97;9.87;;;23.70;99.90;;;;;;5012916;28;20233;-68
2021/06/28 08:02:58;;;;;;;13.30;10.20;;;23.80;26.10;;;;;;5015220;28;20218;-66
2021/06/28 08:05:27;;;;;;;10.77;9.20;;;23.90;99.90;;;;;;5014819;28;20231;-71
2021/06/28 08:07:54;;;;;;;10.60;9.50;;;23.90;1.00;;;;;;5014995;28;20306;-66
2021/06/28 08:10:21;;;;;;;12.27;9.87;;;23.90;73.60;;;;;;5014900;28;20207;-68
2021/06/28 08:12:49;;;;;;;12.40;9.77;;;23.90;20.70;;;;;;5015229;28;20258;-66
2021/06/28 08:15:19;;;;;;;10.37;9.27;;;24.00;92.40;;;;;;5015054;28;20227;-66
2021/06/28 08:17:46;;;;;;;11.23;10.13;;;24.00;75.40;;;;;;5015179;28;20585;-67
2021/06/28 08:20:20;;;;;;;10.17;9.13;;;24.00;28.80;;;;;;5014195;28;20265;-70
2021/06/28 08:22:56;;;;;;;11.57;9.23;;;24.10;1.00;;;;;;5014616;28;20257;-71
2021/06/28 08:25:25;;;;;;;9.80;8.53;;;24.20;1.00;;;;;;5014360;28;20702;-70
2021/06/28 08:27:52;;;;;;;11.73;8.23;;;24.30;1.00;;;;;;5014746;28;20236;-68
2021/06/28 08:30:20;;;;;;;11.97;9.67;;;24.60;1.00;;;;;;5014553;28;20286;-66
2021/06/28 08:32:47;;;;;;;10.43;9.40;;;25.00;1.00;;;;;;5014300;28;20577;-67
2021/06/28 08:35:14;;;;;;;15.67;9.20;;;24.90;1.00;;;;;;5014547;28;20647;-66
2021/06/28 08:37:40;;;;;;;11.60;8.60;;;24.80;1.00;;;;;;5014800;28;20211;-67
2021/06/28 08:40:10;;;;;;;11.07;9.30;;;24.80;1.00;;;;;;5014210;28;20621;-67
2021/06/28 08:42:36;;;;;;;10.20;9.17;;;25.00;1.00;;;;;;5014715;28;20214;-66
2021/06/28 08:45:04;;;;;;;10.20;9.10;;;25.10;1.00;;;;;;5014188;28;20647;-69
2021/06/28 08:50:43;;;;;;;9.83;8.37;;;25.20;1.00;;;;;;4988513;28;20207;-66
2021/06/28 08:53:10;;;;;;;10.53;8.17;;;25.20;1.00;;;;;;5014379;28;20207;-66
2021/06/28 08:55:39;;;;;;;9.87;8.97;;;25.30;1.00;;;;;;5013678;28;20234;-65
2021/06/28 08:58:06;;;;;;;9.63;7.80;;;25.30;1.00;;;;;;5014359;28;20582;-65
2021/06/28 09:00:33;;;;;;;9.50;8.50;;;25.10;1.00;;;;;;5013873;28;20235;-65
2021/06/28 09:03:04;;;;;;;11.10;8.70;;;25.00;99.90;;;;;;5014246;28;20623;-66
2021/06/28 09:05:51;;;;;;;9.10;7.93;;;25.00;99.90;;;;;;5013852;28;20226;-65
2021/06/28 09:08:19;;;;;;;9.77;8.87;;;25.10;99.90;;;;;;5014115;28;20233;-67
2021/06/28 09:10:46;;;;;;;8.30;7.57;;;25.40;1.00;;;;;;5013936;28;20203;-66
2021/06/28 09:13:13;;;;;;;10.63;9.57;;;25.60;99.90;;;;;;5013267;28;20211;-70
2021/06/28 09:15:42;;;;;;;9.27;7.50;;;25.60;99.90;;;;;;5013981;28;20227;-69
2021/06/28 09:18:22;;;;;;;8.10;7.30;;;25.60;1.00;;;;;;5013757;28;20217;-69
2021/06/28 09:20:51;;;;;;;8.50;7.70;;;25.60;99.90;;;;;;5013665;28;20293;-69
2021/06/28 09:23:21;;;;;;;7.73;7.03;;;25.50;99.90;;;;;;5013968;28;20203;-69
2021/06/28 09:25:48;;;;;;;8.67;7.00;;;25.30;99.90;;;;;;5013877;28;20223;-69
2021/06/28 09:28:50;;;;;;;8.40;7.53;;;25.10;99.90;;;;;;5013854;28;20281;-69
2021/06/28 09:31:33;;;;;;;9.17;8.27;;;25.10;99.90;;;;;;5013185;28;20206;-70
2021/06/28 09:34:28;;;;;;;8.40;7.60;;;25.00;1.00;;;;;;5011757;28;20644;-71
2021/06/28 09:36:58;;;;;;;9.30;8.10;;;25.00;1.00;;;;;;4978014;28;20211;-69
2021/06/28 09:39:27;;;;;;;9.87;7.87;;;25.10;99.90;;;;;;5013141;28;20203;-70
2021/06/28 09:41:59;;;;;;;10.37;8.13;;;25.20;99.90;;;;;;5013205;28;20350;-71
2021/06/28 09:44:29;;;;;;;8.93;8.03;;;25.40;99.90;;;;;;5013307;28;20746;-73
2021/06/28 09:47:13;;;;;;;9.27;8.00;;;25.60;99.90;;;;;;5013528;28;20305;-70
2021/06/28 09:49:58;;;;;;;10.13;8.13;;;25.80;99.90;;;;;;5012778;28;20214;-71
2021/06/28 09:52:56;;;;;;;10.80;9.37;;;25.70;99.90;;;;;;5013539;28;20202;-71
2021/06/28 10:03:53;;;;;;;13.13;9.30;;;25.70;99.90;;;;;;5100797;22;20225;-67
2021/06/28 10:06:31;;;;;;;11.03;9.93;;;25.60;99.90;;;;;;5052520;28;20239;-65
2021/06/28 10:09:05;;;;;;;10.57;9.30;;;25.60;99.90;;;;;;5052790;28;20227;-65
2021/06/28 10:11:32;;;;;;;8.80;7.90;;;25.50;99.90;;;;;;5052634;28;20626;-67
2021/06/28 10:14:04;;;;;;;10.70;9.60;;;25.50;99.90;;;;;;5052512;28;20209;-69
2021/06/28 10:16:33;;;;;;;10.37;8.77;;;25.60;99.90;;;;;;5057971;22;20229;-69
2021/06/28 10:19:01;;;;;;;8.30;7.43;;;25.60;99.90;;;;;;5052113;28;20678;-67
2021/06/28 10:21:47;;;;;;;11.23;8.63;;;25.60;99.90;;;;;;5052665;28;20229;-67
2021/06/28 10:24:14;;;;;;;9.57;8.67;;;25.70;99.90;;;;;;5051456;28;20210;-67
2021/06/28 10:26:40;;;;;;;9.90;8.70;;;25.80;99.90;;;;;;5052404;28;20230;-67
2021/06/28 10:29:07;;;;;;;10.70;7.83;;;25.90;99.90;;;;;;5052282;28;20206;-67
2021/06/28 10:31:34;;;;;;;8.83;7.93;;;25.90;99.90;;;;;;5051798;28;20670;-67
2021/06/28 10:34:02;;;;;;;9.27;8.37;;;25.90;99.90;;;;;;5051982;28;20666;-69
2021/06/28 10:36:36;;;;;;;11.67;8.40;;;25.90;99.90;;;;;;5052338;28;20229;-67
2021/06/28 10:39:05;;;;;;;10.10;8.20;;;25.90;99.90;;;;;;5052119;28;20663;-69
2021/06/28 10:41:37;;;;;;;14.43;10.07;;;25.90;99.90;;;;;;5052097;28;20275;-70
2021/06/28 10:44:05;;;;;;;21.97;17.60;;;25.90;99.90;;;;;;5051993;28;20205;-69
2021/06/28 10:46:33;;;;;;;11.50;8.53;;;26.00;99.90;;;;;;5052280;28;20279;-69
2021/06/28 10:49:03;;;;;;;8.10;6.83;;;26.20;99.90;;;;;;5052104;28;20255;-71
2021/06/28 10:51:50;;;;;;;7.47;6.70;;;26.50;99.90;;;;;;5051755;28;20206;-71
2021/06/28 10:54:54;;;;;;;9.40;7.60;;;26.50;99.90;;;;;;5051693;28;20240;-71
2021/06/28 11:00:50;;;;;;;9.47;8.57;;;26.50;99.90;;;;;;4983659;28;20295;-69
2021/06/28 11:07:14;;;;;;;12.27;8.00;;;26.30;99.90;;;;;;4970449;28;20303;-74
2021/06/28 11:09:43;;;;;;;7.43;6.60;;;26.10;99.90;;;;;;4973666;28;20252;-71
2021/06/28 11:12:24;;;;;;;9.00;7.10;;;25.90;99.90;;;;;;4989866;28;20207;-72
2021/06/28 11:17:50;;;;;;;9.17;6.77;;;25.60;99.90;;;;;;5056160;22;20238;-72
2021/06/28 11:20:33;;;;;;;9.10;6.70;;;25.40;99.90;;;;;;4992121;28;20215;-72
2021/06/28 11:23:10;;;;;;;9.10;6.77;;;25.10;99.90;;;;;;4992182;28;20735;-71
2021/06/28 11:25:53;;;;;;;16.43;8.00;;;24.90;99.90;;;;;;4991500;28;20230;-71
2021/06/28 11:28:28;;;;;;;24.80;9.13;;;24.80;99.90;;;;;;4992198;28;20208;-73
2021/06/28 11:34:41;;;;;;;9.03;7.90;;;25.00;99.90;;;;;;4984771;28;20211;-71
2021/06/28 11:37:08;;;;;;;11.67;8.27;;;25.40;99.90;;;;;;4998339;28;20230;-70
2021/06/28 11:39:36;;;;;;;10.13;7.93;;;25.70;99.90;;;;;;4999538;28;20564;-71
2021/06/28 11:42:25;;;;;;;9.30;8.40;;;26.00;99.90;;;;;;4999052;28;20230;-70
2021/06/28 11:45:00;;;;;;;10.80;8.40;;;26.20;99.90;;;;;;4999865;28;20223;-69
2021/06/28 11:48:03;;;;;;;10.00;8.20;;;26.40;99.90;;;;;;5001406;28;20679;-70
2021/06/28 11:50:32;;;;;;;9.90;8.83;;;26.50;99.90;;;;;;4999806;28;20276;-69
2021/06/28 11:52:59;;;;;;;11.63;8.83;;;26.50;99.90;;;;;;4996331;28;20235;-68
2021/06/28 11:55:28;;;;;;;11.77;9.80;;;26.30;99.90;;;;;;4999345;28;20235;-69
2021/06/28 11:57:58;;;;;;;11.93;10.53;;;26.30;99.90;;;;;;5001427;28;20214;-70
2021/06/28 12:00:24;;;;;;;12.47;10.33;;;26.10;99.90;;;;;;4999103;28;20238;-70
2021/06/28 12:03:09;;;;;;;12.37;11.07;;;25.70;99.90;;;;;;4996619;28;20208;-69
2021/06/28 12:13:30;;;;;;;15.50;12.97;;;25.50;99.90;;;;;;1314618;22;20620;-69
2021/06/28 12:15:57;;;;;;;16.87;12.43;;;25.50;99.90;;;;;;5055009;28;20225;-70
2021/06/28 12:18:24;;;;;;;14.43;12.50;;;25.50;99.90;;;;;;5054734;28;20209;-69
2021/06/28 12:20:56;;;;;;;15.37;12.90;;;25.70;99.90;;;;;;5054426;28;20256;-69
2021/06/28 12:23:24;;;;;;;15.00;12.43;;;25.60;99.90;;;;;;5054572;28;20284;-70
2021/06/28 12:25:51;;;;;;;16.20;12.47;;;25.90;99.90;;;;;;5054483;28;20710;-70
2021/06/28 12:28:28;;;;;;;14.33;11.93;;;25.90;99.90;;;;;;5054345;28;20243;-70
2021/06/28 12:30:56;;;;;;;16.23;12.33;;;26.00;99.90;;;;;;5054306;28;20300;-69
2021/06/28 12:33:23;;;;;;;14.53;12.43;;;26.20;99.90;;;;;;5054433;28;20226;-71
2021/06/28 12:35:58;;;;;;;16.87;12.70;;;26.10;99.90;;;;;;5054051;28;20256;-70
2021/06/28 12:38:25;;;;;;;15.37;12.20;;;26.00;99.90;;;;;;5054372;28;20209;-69
2021/06/28 12:40:52;;;;;;;17.73;13.90;;;26.10;99.90;;;;;;5053650;28;20212;-70
2021/06/28 12:43:22;;;;;;;15.53;13.87;;;26.00;99.90;;;;;;5054464;28;20214;-71
2021/06/28 12:45:50;;;;;;;14.90;13.30;;;26.10;99.90;;;;;;5053706;28;20232;-70
2021/06/28 12:48:20;;;;;;;17.70;13.87;;;26.10;99.90;;;;;;5053783;28;20205;-70
2021/06/28 12:50:53;;;;;;;15.13;13.30;;;26.10;99.90;;;;;;5053923;28;20209;-70
2021/06/28 12:53:20;;;;;;;15.77;12.20;;;26.20;99.90;;;;;;5053836;28;20229;-70
2021/06/28 12:55:48;;;;;;;14.57;12.30;;;26.30;99.90;;;;;;5054067;28;20225;-70
2021/06/28 12:58:16;;;;;;;18.30;12.33;;;26.20;99.90;;;;;;5054152;28;20206;-71
2021/06/28 13:00:45;;;;;;;13.33;11.93;;;26.20;99.90;;;;;;5053855;28;20214;-70
2021/06/28 13:03:13;;;;;;;17.07;12.33;;;26.40;99.90;;;;;;5054297;28;20213;-70
2021/06/28 13:05:47;;;;;;;13.70;12.30;;;26.80;99.90;;;;;;5053673;28;20222;-70
2021/06/28 13:08:25;;;;;;;16.00;13.80;;;26.90;99.90;;;;;;5054027;28;20256;-69
2021/06/28 13:10:58;;;;;;;15.20;13.70;;;26.70;99.90;;;;;;5053642;28;20209;-70
2021/06/28 13:13:26;;;;;;;14.57;12.90;;;26.30;99.90;;;;;;5053802;28;20230;-69
2021/06/28 13:16:39;;;;;;;13.63;12.23;;;26.30;99.90;;;;;;5054207;28;20230;-71
2021/06/28 13:19:08;;;;;;;13.37;11.97;;;26.70;99.90;;;;;;4991918;28;20583;-71